Terminal Aerodrome Forecast
Issued by NWS Pendleton, OR

Home | Current Version | Previous Version | Text Only | Print | Product List | Glossary On
Versions: 1 2 3 4 5 6 7 8 9 10 11 12 13 14 15 16 17 18 19
000
FTUS46 KPDT 131720
TAFPDT
TAF
KPDT 131720Z 1318/1418 31004KT 6SM BR SCT006 OVC012
      TEMPO 1318/1320 BKN005 OVC011
     FM140100 VRB03KT 4SM BR BKN004 OVC008
     FM140600 VRB03KT 1/2SM FG OVC002=

USA.gov is the U.S. government's official web portal to all federal, state and local government web resources and services.